Time;durP1;ratioP1;P1;durP2;ratioP2;P2;SDS_P1;SDS_P2;PMS_P1;PMS_P2;Temp;Humidity;BMP_temperature;BMP_pressure;BME280_temperature;BME280_humidity;BME280_pressure;Samples;Min_cycle;Max_cycle;Signal;HPM_P1;HPM_P2
2021/07/02 15:31:54;;;;;;;;;;;;;;;;;;5081575;27;19916;-59
2021/07/02 16:22:52;;;;;;;;;;;;;;;;;;1047152;27;105675;-64
2021/07/02 16:23:23;;;;;;;;;;;;;;;;;;1038377;27;106235;-67
2021/07/02 16:24:18;;;;;;;5.22;2.60;;;;;;;;;;1031788;28;100286;-66
2021/07/02 16:24:49;;;;;;;2.28;2.15;;;;;;;;;;1023657;28;100741;-65
2021/07/02 16:25:20;;;;;;;3.78;2.50;;;;;;;;;;1028619;28;100269;-49
2021/07/02 16:25:51;;;;;;;3.45;2.67;;;;;;;;;;1021738;28;100349;-69
2021/07/02 16:26:22;;;;;;;2.95;2.30;;;;;;;;;;1018390;28;100202;-69
2021/07/02 16:26:53;;;;;;;2.75;2.20;;;;;;;;;;1019124;28;100276;-71
2021/07/02 16:27:24;;;;;;;4.72;3.10;;;;;;;;;;1021487;28;100919;-69
2021/07/02 16:27:57;;;;;;;2.83;2.58;;;;;;;;;;1026093;28;101138;-69
2021/07/02 16:28:28;;;;;;;5.45;2.63;;;;;;;;;;1031795;28;100825;-68
2021/07/02 16:28:59;;;;;;;2.70;2.50;;;;;;;;;;1029217;28;100726;-69
2021/07/02 16:29:33;;;;;;;2.70;2.42;;;;;;;;;;1028890;28;100309;-68
2021/07/02 16:30:05;;;;;;;7.20;2.60;;;;;;;;;;1024625;28;100678;-74
2021/07/02 16:30:36;;;;;;;2.95;2.60;;;;;;;;;;1025601;28;99765;-68
2021/07/02 16:31:08;;;;;;;2.60;2.40;;;;;;;;;;1024524;28;101143;-69
2021/07/02 16:31:39;;;;;;;2.90;2.60;;;;;;;;;;1024186;28;100329;-69
2021/07/02 16:32:10;;;;;;;3.08;2.53;;;;;;;;;;1027163;28;100416;-69
2021/07/02 16:32:41;;;;;;;2.80;2.58;;;;;;;;;;1030442;28;100330;-68
2021/07/02 16:33:12;;;;;;;2.55;2.30;;;;;;;;;;1024276;28;101370;-67
2021/07/02 16:33:43;;;;;;;4.35;2.88;;;;;;;;;;1028262;28;100258;-67
2021/07/02 16:34:14;;;;;;;4.10;2.80;;;;;;;;;;1023239;28;100250;-56
2021/07/02 16:34:45;;;;;;;3.10;2.90;;;;;;;;;;1021632;28;101166;-64
2021/07/02 16:35:16;;;;;;;3.50;3.20;;;;;;;;;;1016904;28;100557;-62
2021/07/02 16:35:47;;;;;;;2.30;2.10;;;;;;;;;;1017221;28;100276;-60
2021/07/02 16:36:21;;;;;;;8.32;2.20;;;;;;;;;;1014617;28;101752;-63
2021/07/02 16:36:53;;;;;;;3.05;2.75;;;;;;;;;;1016609;28;101035;-70
2021/07/02 16:37:24;;;;;;;3.38;2.78;;;;;;;;;;1013451;28;100402;-67
2021/07/02 16:37:55;;;;;;;3.50;2.15;;;;;;;;;;1018470;28;100865;-65
2021/07/02 16:38:26;;;;;;;9.00;2.53;;;;;;;;;;1018848;28;100429;-68
2021/07/02 16:38:58;;;;;;;4.22;3.30;;;;;;;;;;1018366;28;101690;-60
2021/07/02 16:39:29;;;;;;;3.75;2.67;;;;;;;;;;1018119;28;103174;-68
2021/07/02 16:40:00;;;;;;;6.72;2.83;;;;;;;;;;1016617;28;100539;-61
2021/07/02 16:40:31;;;;;;;2.67;2.13;;;;;;;;;;1015258;28;101008;-69
2021/07/02 16:41:02;;;;;;;2.80;2.20;;;;;;;;;;1013583;28;100227;-67
2021/07/02 16:41:34;;;;;;;3.35;2.22;;;;;;;;;;1007563;28;102973;-67
2021/07/02 16:42:05;;;;;;;3.25;2.47;;;;;;;;;;1015727;28;100239;-60
2021/07/02 16:42:36;;;;;;;3.30;2.13;;;;;;;;;;1016399;28;100696;-60
2021/07/02 16:43:07;;;;;;;6.40;2.38;;;;;;;;;;1021741;28;99683;-69
2021/07/02 16:43:38;;;;;;;3.70;2.22;;;;;;;;;;1018764;28;100337;-71
2021/07/02 16:44:09;;;;;;;4.57;2.95;;;;;;;;;;1021906;28;102540;-73
2021/07/02 16:44:40;;;;;;;3.20;2.90;;;;;;;;;;1012507;28;101189;-76
2021/07/02 16:45:13;;;;;;;2.38;2.05;;;;;;;;;;1013535;28;99697;-68
2021/07/02 16:45:44;;;;;;;3.40;2.15;;;;;;;;;;1012427;28;105707;-70
2021/07/02 16:46:15;;;;;;;3.13;2.50;;;;;;;;;;1018043;28;100154;-67
2021/07/02 16:46:46;;;;;;;2.40;2.20;;;;;;;;;;1018118;28;100538;-69
2021/07/02 16:47:17;;;;;;;4.28;2.38;;;;;;;;;;1017213;28;100181;-69
2021/07/02 16:47:48;;;;;;;2.70;2.50;;;;;;;;;;1014420;28;100803;-67
2021/07/02 16:48:19;;;;;;;2.95;2.63;;;;;;;;;;1013037;28;100311;-68
2021/07/02 16:48:51;;;;;;;3.17;2.40;;;;;;;;;;1017042;28;100461;-64
2021/07/02 16:49:22;;;;;;;5.60;2.50;;;;;;;;;;1019947;28;100267;-70
2021/07/02 16:49:53;;;;;;;9.65;2.22;;;;;;;;;;1020269;28;100265;-65
2021/07/02 16:50:24;;;;;;;3.78;2.63;;;;;;;;;;1018885;28;99885;-68
2021/07/02 16:50:55;;;;;;;2.53;2.33;;;;;;;;;;1020002;28;104149;-65
2021/07/02 16:51:29;;;;;;;3.33;2.30;;;;;;;;;;1020228;28;100262;-68
2021/07/02 16:52:00;;;;;;;3.42;2.45;;;;;;;;;;1018514;28;101081;-66
2021/07/02 16:52:31;;;;;;;3.10;2.53;;;;;;;;;;1020390;28;100286;-68
2021/07/02 16:53:02;;;;;;;2.60;2.40;;;;;;;;;;1018925;28;100410;-67
2021/07/02 16:53:33;;;;;;;2.65;2.45;;;;;;;;;;1022330;28;100141;-71
2021/07/02 16:54:05;;;;;;;2.88;2.35;;;;;;;;;;1018662;28;101839;-67
2021/07/02 16:54:37;;;;;;;2.42;2.20;;;;;;;;;;1021711;28;100131;-65
2021/07/02 16:55:08;;;;;;;4.05;2.53;;;;;;;;;;1019641;28;101161;-66
2021/07/02 16:55:39;;;;;;;3.92;2.38;;;;;;;;;;1019215;28;100449;-56
2021/07/02 16:56:10;;;;;;;4.43;2.75;;;;;;;;;;1021660;28;100812;-65
2021/07/02 16:56:41;;;;;;;4.53;2.78;;;;;;;;;;1023215;28;100810;-63
2021/07/02 16:57:12;;;;;;;2.58;2.20;;;;;;;;;;1023423;28;100397;-75
2021/07/02 16:57:43;;;;;;;6.63;2.70;;;;;;;;;;1024484;28;100432;-66
2021/07/02 16:58:15;;;;;;;9.80;2.65;;;;;;;;;;1019721;28;100886;-67
2021/07/02 16:58:46;;;;;;;2.97;2.70;;;;;;;;;;1020410;28;100302;-75
2021/07/02 16:59:17;;;;;;;4.10;3.20;;;;;;;;;;1020030;28;102018;-71
2021/07/02 16:59:48;;;;;;;4.70;3.35;;;;;;;;;;1017665;28;100254;-69
2021/07/02 17:00:19;;;;;;;4.07;3.03;;;;;;;;;;1014918;28;101174;-57
2021/07/02 17:00:50;;;;;;;2.70;2.50;;;;;;;;;;1021092;28;100316;-68
2021/07/02 17:01:21;;;;;;;6.50;3.30;;;;;;;;;;1018569;28;100513;-71
2021/07/02 17:01:52;;;;;;;3.17;2.88;;;;;;;;;;1020945;28;100343;-58
2021/07/02 17:02:23;;;;;;;7.30;3.00;;;;;;;;;;1020067;28;100388;-66
2021/07/02 17:08:41;;;;;;;5.78;3.10;;;;;;;;;;1031982;28;101371;-66
2021/07/02 17:09:12;;;;;;;2.47;2.28;;;;;;;;;;1028912;28;100328;-61
2021/07/02 17:09:47;;;;;;;4.63;2.45;;;;;;;;;;1029579;28;100336;-73
2021/07/02 17:10:18;;;;;;;2.45;2.25;;;;;;;;;;1028051;28;100388;-63
2021/07/02 17:10:49;;;;;;;2.47;2.28;;;;;;;;;;1028251;28;100645;-65
2021/07/02 17:11:20;;;;;;;2.60;2.30;;;;;;;;;;1027397;28;101092;-57
2021/07/02 17:11:52;;;;;;;8.45;2.45;;;;;;;;;;1032162;28;101301;-65
2021/07/02 17:12:23;;;;;;;3.72;2.40;;;;;;;;;;1028129;28;100721;-62
2021/07/02 17:12:54;;;;;;;5.95;2.67;;;;;;;;;;1029156;28;100411;-59
2021/07/02 17:13:25;;;;;;;4.05;2.60;;;;;;;;;;1029575;28;101264;-57
2021/07/02 17:14:01;;;;;;;3.22;2.33;;;;;;;;;;1026899;28;100199;-59
2021/07/02 17:14:32;;;;;;;2.20;2.00;;;;;;;;;;1027048;28;100572;-61
2021/07/02 17:15:04;;;;;;;6.45;2.47;;;;;;;;;;1029801;28;100305;-62
2021/07/02 17:15:35;;;;;;;4.75;2.60;;;;;;;;;;1028970;28;100451;-68
2021/07/02 17:16:06;;;;;;;7.03;2.85;;;;;;;;;;1029087;28;100291;-64
2021/07/02 17:16:38;;;;;;;5.18;2.85;;;;;;;;;;1028124;28;100969;-62
2021/07/02 17:17:12;;;;;;;4.32;2.40;;;;;;;;;;1028798;28;99624;-62
2021/07/02 17:17:43;;;;;;;4.78;2.67;;;;;;;;;;1029178;28;100333;-56
2021/07/02 17:18:15;;;;;;;3.10;2.80;;;;;;;;;;1030210;28;100221;-62
2021/07/02 17:18:46;;;;;;;6.22;2.78;;;;;;;;;;1029268;28;101430;-57
2021/07/02 17:19:17;;;;;;;2.58;2.38;;;;;;;;;;1031096;28;100244;-58
2021/07/02 17:19:49;;;;;;;2.60;2.40;;;;;;;;;;1029152;28;101288;-60
2021/07/02 17:20:20;;;;;;;2.70;2.30;;;;;;;;;;1029833;28;100383;-58
2021/07/02 17:20:52;;;;;;;2.85;2.33;;;;;;;;;;1029778;28;103891;-58
2021/07/02 17:21:23;;;;;;;2.50;2.30;;;;;;;;;;1028169;28;100739;-64
2021/07/02 17:21:54;;;;;;;3.75;2.08;;;;;;;;;;1028832;28;100349;-60
2021/07/02 17:22:25;;;;;;;4.80;2.20;;;;;;;;;;1026948;28;100300;-62
2021/07/02 17:22:57;;;;;;;2.47;2.25;;;;;;;;;;1028718;28;101355;-58
2021/07/02 17:23:28;;;;;;;5.80;2.42;;;;;;;;;;1030561;28;100374;-64
2021/07/02 17:23:59;;;;;;;2.20;2.00;;;;;;;;;;1028003;28;100734;-56
2021/07/02 17:24:30;;;;;;;3.65;2.40;;;;;;;;;;1027479;28;100374;-59
2021/07/02 17:25:04;;;;;;;2.47;2.28;;;;;;;;;;1028041;28;100754;-60
2021/07/02 17:25:35;;;;;;;3.10;2.70;;;;;;;;;;1025542;28;102720;-58
2021/07/02 17:26:06;;;;;;;2.90;2.22;;;;;;;;;;1024072;28;100729;-58
2021/07/02 17:26:37;;;;;;;4.35;2.40;;;;;;;;;;1026845;28;101138;-55
2021/07/02 17:27:08;;;;;;;2.90;2.50;;;;;;;;;;1029654;28;100387;-61
2021/07/02 17:27:42;;;;;;;3.45;2.40;;;;;;;;;;1030035;28;100268;-60
2021/07/02 17:28:13;;;;;;;3.45;2.22;;;;;;;;;;1028810;28;103537;-63
2021/07/02 17:28:44;;;;;;;2.40;2.20;;;;;;;;;;1026448;28;100541;-60
2021/07/02 17:29:15;;;;;;;3.17;2.55;;;;;;;;;;1026369;28;101696;-64
2021/07/02 17:29:46;;;;;;;4.63;2.42;;;;;;;;;;1022112;28;101216;-62
2021/07/02 17:30:17;;;;;;;5.90;2.20;;;;;;;;;;1021949;28;101103;-63
2021/07/02 17:30:48;;;;;;;4.60;2.25;;;;;;;;;;1025422;28;100355;-58
2021/07/02 17:31:19;;;;;;;2.38;2.17;;;;;;;;;;1023350;28;101369;-60
2021/07/02 17:31:50;;;;;;;3.72;2.53;;;;;;;;;;1031488;28;100207;-60
2021/07/02 17:32:21;;;;;;;2.45;2.15;;;;;;;;;;1026101;28;101021;-58
2021/07/02 17:32:52;;;;;;;3.38;2.40;;;;;;;;;;1024678;28;100331;-59
2021/07/02 17:33:23;;;;;;;4.03;2.53;;;;;;;;;;1023947;28;100325;-57
2021/07/02 17:33:54;;;;;;;2.70;2.50;;;;;;;;;;1024109;28;100183;-64
2021/07/02 17:34:25;;;;;;;3.50;2.50;;;;;;;;;;1025472;28;100339;-62
2021/07/02 17:34:56;;;;;;;5.00;2.45;;;;;;;;;;1024002;28;100096;-60
2021/07/02 17:35:27;;;;;;;3.75;2.28;;;;;;;;;;1018689;28;103711;-60
2021/07/02 17:35:58;;;;;;;2.67;2.47;;;;;;;;;;1022036;28;100600;-60
2021/07/02 17:36:30;;;;;;;3.10;2.33;;;;;;;;;;1013236;28;100581;-60
2021/07/02 17:37:01;;;;;;;3.30;2.50;;;;;;;;;;1026054;28;100321;-63
2021/07/02 17:37:32;;;;;;;6.15;2.35;;;;;;;;;;1029757;28;100592;-64
2021/07/02 17:38:03;;;;;;;2.53;2.33;;;;;;;;;;1029420;28;100566;-60
2021/07/02 17:38:34;;;;;;;3.00;2.63;;;;;;;;;;1027990;28;101094;-61
2021/07/02 17:39:05;;;;;;;2.28;2.08;;;;;;;;;;1027922;28;100256;-62
2021/07/02 17:39:36;;;;;;;2.53;2.33;;;;;;;;;;1027238;28;103918;-61
2021/07/02 17:40:08;;;;;;;3.55;2.28;;;;;;;;;;1027757;28;100236;-62
2021/07/02 17:40:39;;;;;;;2.78;2.53;;;;;;;;;;1027608;28;100250;-61
2021/07/02 17:41:10;;;;;;;5.53;2.25;;;;;;;;;;1028660;28;102134;-62
2021/07/02 17:41:41;;;;;;;3.13;2.75;;;;;;;;;;1033949;28;100223;-61
2021/07/02 17:42:12;;;;;;;3.50;2.08;;;;;;;;;;1031779;28;100114;-62
2021/07/02 17:42:43;;;;;;;5.15;2.38;;;;;;;;;;1026669;28;103201;-58
2021/07/02 17:43:14;;;;;;;2.38;2.17;;;;;;;;;;1024921;28;103298;-58
2021/07/02 17:43:45;;;;;;;5.65;2.08;;;;;;;;;;1023892;28;101320;-55
2021/07/02 17:44:16;;;;;;;7.32;2.38;;;;;;;;;;1024851;28;101071;-64
2021/07/02 17:44:47;;;;;;;3.55;2.10;;;;;;;;;;1027786;28;100497;-58
2021/07/02 17:45:19;;;;;;;3.63;2.10;;;;;;;;;;1031551;28;100176;-55
2021/07/02 17:45:50;;;;;;;4.20;2.30;;;;;;;;;;1029064;28;101470;-53
2021/07/02 17:46:21;;;;;;;2.30;2.10;;;;;;;;;;1028750;28;100289;-63
2021/07/02 17:46:52;;;;;;;6.75;2.10;;;;;;;;;;1028745;28;100333;-57
2021/07/02 17:47:23;;;;;;;4.55;2.10;;;;;;;;;;1028578;28;100314;-58
2021/07/02 17:47:54;;;;;;;4.88;2.08;;;;;;;;;;1030215;28;100320;-57
2021/07/02 17:48:25;;;;;;;2.72;2.20;;;;;;;;;;1028683;28;100455;-58
2021/07/02 17:48:58;;;;;;;2.95;1.83;;;;;;;;;;1028901;28;100729;-52
2021/07/02 17:49:29;;;;;;;2.25;1.95;;;;;;;;;;1028938;28;100168;-61
2021/07/02 17:50:02;;;;;;;4.15;2.15;;;;;;;;;;1025552;28;100714;-57
2021/07/02 17:50:34;;;;;;;2.03;1.65;;;;;;;;;;1029897;28;100350;-46
2021/07/02 17:51:05;;;;;;;3.83;1.90;;;;;;;;;;1029255;28;100372;-51
